Time;durP1;ratioP1;P1;durP2;ratioP2;P2;SDS_P1;SDS_P2;PMS_P1;PMS_P2;Temp;Humidity;BMP_temperature;BMP_pressure;BME280_temperature;BME280_humidity;BME280_pressure;Samples;Min_cycle;Max_cycle;Signal;HPM_P1;HPM_P2
2021/05/02 00:04:36;;;;;;;55.00;33.08;;;;;;;16.90;99.15;98208.09;4323651;81;28571;-81
2021/05/02 00:10:38;;;;;;;44.15;26.27;;;;;;;16.70;100.00;98189.64;4348048;81;28629;-80
2021/05/02 00:16:41;;;;;;;48.80;29.07;;;;;;;17.21;95.34;98171.00;4323256;81;28623;-80
2021/05/02 00:22:46;;;;;;;50.73;30.97;;;;;;;17.01;96.79;98146.35;4311409;80;28579;-81
2021/05/02 00:28:52;;;;;;;41.18;25.43;;;;;;;16.12;100.00;98134.52;4303255;82;28963;-82
2021/05/02 00:34:55;;;;;;;43.30;25.90;;;;;;;16.84;99.22;98140.07;4293876;80;28622;-81
2021/05/02 00:40:59;;;;;;;40.43;24.80;;;;;;;16.36;100.00;98120.67;4308878;82;28632;-81
2021/05/02 00:47:12;;;;;;;46.35;27.13;;;;;;;16.41;100.00;98124.12;4327304;81;28550;-81
2021/05/02 00:53:55;;;;;;;39.08;23.62;;;;;;;16.42;100.00;98124.91;4300309;82;28627;-80
2021/05/02 01:00:06;;;;;;;41.23;24.65;;;;;;;16.65;100.00;98107.48;4338933;82;28602;-81
2021/05/02 01:06:13;;;;;;;46.13;26.52;;;;;;;17.12;95.43;98117.92;4309904;82;28618;-81
2021/05/02 01:12:18;;;;;;;46.97;27.73;;;;;;;16.44;100.00;98106.42;4310378;82;28591;-81
2021/05/02 01:18:21;;;;;;;52.88;29.35;;;;;;;16.08;100.00;98097.42;4336828;80;28605;-80
2021/05/02 01:24:25;;;;;;;48.45;26.60;;;;;;;16.56;100.00;98089.72;4298536;81;28603;-80
2021/05/02 01:30:27;;;;;;;52.73;28.25;;;;;;;16.20;100.00;98073.40;4330912;80;28634;-81
2021/05/02 01:36:29;;;;;;;56.13;29.40;;;;;;;15.77;100.00;98047.63;4347806;81;28568;-80
2021/05/02 01:42:32;;;;;;;57.62;29.98;;;;;;;16.05;100.00;98021.54;4321202;81;28593;-81
2021/05/02 01:48:38;;;;;;;58.05;30.55;;;;;;;15.73;100.00;98021.13;4319397;81;28577;-81
2021/05/02 01:54:42;;;;;;;56.50;28.32;;;;;;;15.69;100.00;97990.83;4309420;81;28659;-81
2021/05/02 02:00:57;;;;;;;59.60;29.63;;;;;;;16.27;100.00;97974.05;4347736;80;28633;-81
2021/05/02 02:06:59;;;;;;;50.48;25.68;;;;;;;15.67;100.00;97955.06;4311678;80;28584;-81
2021/05/02 02:13:02;;;;;;;60.67;30.70;;;;;;;16.41;100.00;97935.59;4345680;80;28661;-81
2021/05/02 02:19:05;;;;;;;59.93;29.77;;;;;;;16.61;100.00;97945.03;4320113;81;28584;-80
2021/05/02 02:25:10;;;;;;;62.70;31.17;;;;;;;16.47;100.00;97936.31;4341398;81;28579;-81
2021/05/02 02:31:14;;;;;;;62.70;29.83;;;;;;;16.32;100.00;97914.31;4321661;81;28573;-81
2021/05/02 02:37:20;;;;;;;65.95;32.05;;;;;;;16.07;100.00;97909.53;4313759;80;28726;-80
2021/05/02 02:43:29;;;;;;;55.43;27.15;;;;;;;15.92;100.00;97897.59;4313898;81;28669;-81
2021/05/02 02:49:33;;;;;;;45.20;21.95;;;;;;;15.99;100.00;97890.69;4336432;81;28627;-81
2021/05/02 02:55:38;;;;;;;55.38;26.80;;;;;;;15.77;100.00;97883.13;4334533;81;28596;-81
2021/05/02 03:01:42;;;;;;;55.92;27.93;;;;;;;16.15;100.00;97869.55;4315666;80;28653;-81
2021/05/02 03:07:50;;;;;;;60.15;26.97;;;;;;;15.86;100.00;97839.35;4311139;80;28784;-81
2021/05/02 03:13:53;;;;;;;62.45;29.32;;;;;;;15.61;100.00;97831.06;4337636;81;28636;-80
2021/05/02 03:20:09;;;;;;;63.48;30.15;;;;;;;15.52;100.00;97812.54;4350600;81;28626;-79
2021/05/02 03:26:13;;;;;;;61.10;28.38;;;;;;;15.61;100.00;97805.33;4307896;81;29052;-80
2021/05/02 03:32:18;;;;;;;66.00;29.40;;;;;;;16.10;100.00;97785.61;4298915;80;28696;-80
2021/05/02 03:38:33;;;;;;;64.25;30.20;;;;;;;15.71;100.00;97770.52;4299529;82;28568;-81
2021/05/02 03:44:35;;;;;;;68.50;31.25;;;;;;;15.76;100.00;97763.64;4300151;82;28583;-81
2021/05/02 03:50:37;;;;;;;64.62;29.45;;;;;;;15.65;100.00;97758.95;4294668;82;28634;-81
2021/05/02 03:56:45;;;;;;;66.20;31.48;;;;;;;15.91;100.00;97746.34;4328491;82;28664;-81
2021/05/02 04:02:47;;;;;;;59.42;28.92;;;;;;;15.39;100.00;97757.20;4309686;81;28600;-81
2021/05/02 04:08:49;;;;;;;63.65;29.82;;;;;;;16.47;100.00;97746.42;4290839;80;28576;-81
2021/05/02 04:14:51;;;;;;;61.68;30.32;;;;;;;15.99;100.00;97725.34;4328882;82;28573;-81
2021/05/02 04:20:54;;;;;;;60.08;28.67;;;;;;;15.70;100.00;97719.57;4300067;81;28634;-81
2021/05/02 04:26:59;;;;;;;61.53;29.63;;;;;;;16.10;100.00;97701.56;4328030;82;28604;-82
2021/05/02 04:33:01;;;;;;;59.90;28.20;;;;;;;15.76;100.00;97706.73;4327988;80;28628;-83
2021/05/02 04:39:05;;;;;;;61.28;30.00;;;;;;;15.85;100.00;97699.53;4303738;82;28649;-82
2021/05/02 04:45:08;;;;;;;66.33;30.65;;;;;;;15.93;100.00;97683.72;4310089;82;28679;-82
2021/05/02 04:51:12;;;;;;;57.67;28.98;;;;;;;15.70;100.00;97687.62;4321549;82;28611;-82
2021/05/02 04:57:14;;;;;;;53.73;26.40;;;;;;;16.53;100.00;97695.00;4317779;81;28643;-82
2021/05/02 05:03:17;;;;;;;48.05;25.35;;;;;;;16.98;100.00;97705.16;4309962;82;28575;-82
2021/05/02 05:09:19;;;;;;;49.38;24.43;;;;;;;17.34;100.00;97715.78;4296558;81;28576;-82
2021/05/02 05:15:22;;;;;;;48.90;23.57;;;;;;;16.71;100.00;97705.50;4309335;82;28576;-82
2021/05/02 05:21:24;;;;;;;40.60;21.50;;;;;;;16.70;100.00;97718.00;4315298;82;28615;-83
2021/05/02 05:27:26;;;;;;;39.05;21.05;;;;;;;17.53;100.00;97718.88;4289938;82;28603;-82
2021/05/02 05:33:30;;;;;;;37.40;20.90;;;;;;;16.94;100.00;97690.61;4308101;80;28611;-81
2021/05/02 05:39:33;;;;;;;34.23;18.92;;;;;;;16.17;100.00;97664.56;4357729;81;28623;-83
2021/05/02 05:45:35;;;;;;;26.55;15.60;;;;;;;16.15;100.00;97658.07;4320700;80;28624;-82
2021/05/02 05:51:37;;;;;;;25.10;14.85;;;;;;;16.48;100.00;97640.88;4303377;81;28694;-83
2021/05/02 05:57:40;;;;;;;24.43;14.07;;;;;;;15.88;100.00;97633.91;4297414;80;28660;-81
2021/05/02 06:03:42;;;;;;;21.45;12.93;;;;;;;16.55;100.00;97629.03;4325994;81;28612;-82
2021/05/02 06:09:44;;;;;;;19.07;11.80;;;;;;;17.09;100.00;97650.12;4295837;82;28572;-83
2021/05/02 06:15:46;;;;;;;16.07;9.93;;;;;;;17.82;100.00;97659.17;4330356;82;28734;-83
2021/05/02 06:21:48;;;;;;;14.60;9.60;;;;;;;17.82;100.00;97653.16;4318884;80;28579;-82
2021/05/02 06:27:50;;;;;;;14.58;9.35;;;;;;;17.23;100.00;97639.73;4339376;80;28585;-82
2021/05/02 06:33:52;;;;;;;13.22;9.28;;;;;;;17.52;100.00;97673.80;4355996;80;28613;-81
2021/05/02 06:39:56;;;;;;;10.88;7.47;;;;;;;17.45;100.00;97635.39;4324287;80;28620;-82
2021/05/02 06:45:58;;;;;;;10.72;7.30;;;;;;;17.68;100.00;97601.62;4310417;82;28732;-82
2021/05/02 06:52:01;;;;;;;11.03;7.60;;;;;;;16.61;100.00;97542.11;4303034;82;28612;-81
2021/05/02 06:58:03;;;;;;;10.90;7.42;;;;;;;15.80;100.00;97413.77;4340958;82;28660;-82
2021/05/02 07:04:05;;;;;;;10.93;6.47;;;;;;;16.61;100.00;97409.98;4358663;80;28597;-84
2021/05/02 07:10:09;;;;;;;11.15;7.42;;;;;;;17.64;100.00;97455.27;4317565;82;28637;-82
2021/05/02 07:16:11;;;;;;;10.98;7.33;;;;;;;17.78;100.00;97450.24;4311384;80;28655;-83
2021/05/02 07:22:15;;;;;;;9.38;6.80;;;;;;;17.97;100.00;97438.51;4323677;80;28600;-82
2021/05/02 07:28:17;;;;;;;10.20;6.65;;;;;;;18.80;100.00;97445.41;4361309;80;28588;-82
2021/05/02 07:34:19;;;;;;;7.40;5.53;;;;;;;19.05;100.00;97438.07;4315847;81;28569;-81
2021/05/02 07:40:21;;;;;;;8.00;5.37;;;;;;;19.82;100.00;97443.98;4329824;81;28567;-80
2021/05/02 07:46:24;;;;;;;9.30;6.45;;;;;;;18.94;100.00;97419.88;4306360;80;28624;-81
2021/05/02 07:52:26;;;;;;;9.33;6.65;;;;;;;20.05;100.00;97421.31;4328524;81;28599;-80
2021/05/02 07:58:28;;;;;;;10.03;7.37;;;;;;;21.20;100.00;97394.75;4311092;80;28573;-81
2021/05/02 08:04:30;;;;;;;10.35;7.55;;;;;;;20.79;100.00;97380.91;4327851;81;28635;-80
2021/05/02 08:10:32;;;;;;;9.18;6.97;;;;;;;22.09;99.04;97383.54;4314608;80;28645;-84
2021/05/02 08:16:34;;;;;;;9.73;7.45;;;;;;;22.03;98.19;97380.03;4322154;81;28633;-83
2021/05/02 08:22:37;;;;;;;11.48;8.30;;;;;;;22.32;94.96;97372.02;4326256;81;28618;-82
2021/05/02 08:28:39;;;;;;;9.90;7.37;;;;;;;22.03;98.56;97372.61;4323855;80;28664;-82
2021/05/02 08:34:43;;;;;;;10.20;6.92;;;;;;;21.93;100.00;97373.91;4329382;81;28652;-82
2021/05/02 08:40:45;;;;;;;9.43;7.37;;;;;;;22.14;99.19;97375.66;4362942;81;28579;-81
2021/05/02 08:46:47;;;;;;;10.38;7.65;;;;;;;22.76;95.19;97375.90;4335228;80;28580;-83
2021/05/02 08:52:49;;;;;;;11.00;8.28;;;;;;;22.56;97.71;97368.95;4317510;80;28577;-82
2021/05/02 08:58:51;;;;;;;11.55;7.85;;;;;;;22.58;97.25;97387.19;4358493;80;28667;-81
2021/05/02 09:04:55;;;;;;;10.93;8.20;;;;;;;22.20;100.00;97383.04;4321562;80;28686;-82
2021/05/02 09:10:59;;;;;;;11.43;8.58;;;;;;;22.02;100.00;97384.70;4341639;80;28624;-82
2021/05/02 09:17:16;;;;;;;11.12;7.75;;;;;;;22.27;100.00;97400.45;4323828;81;28599;-81
2021/05/02 09:23:18;;;;;;;11.88;7.97;;;;;;;22.36;100.00;97378.37;4319589;81;28583;-81
2021/05/02 09:29:21;;;;;;;11.18;8.30;;;;;;;22.32;100.00;97380.80;4323948;81;28589;-81
2021/05/02 09:35:30;;;;;;;12.45;9.00;;;;;;;23.15;97.68;97382.11;4325455;81;28674;-81
2021/05/02 09:41:37;;;;;;;12.20;8.55;;;;;;;22.97;100.00;97390.72;4306300;81;28615;-82
2021/05/02 09:47:42;;;;;;;12.80;8.00;;;;;;;23.53;100.00;97405.34;4323764;81;28577;-81
2021/05/02 09:54:13;;;;;;;11.40;8.30;;;;;;;23.91;95.25;97402.45;4316776;81;28604;-82
2021/05/02 10:00:34;;;;;;;10.30;7.45;;;;;;;23.63;95.57;97417.13;4328280;80;28626;-81
2021/05/02 10:06:38;;;;;;;16.73;11.78;;;;;;;21.82;100.00;97484.95;4346145;80;28700;-81
2021/05/02 10:12:48;;;;;;;19.52;12.85;;;;;;;20.89;100.00;97506.95;4330555;80;28566;-81
2021/05/02 10:18:51;;;;;;;18.32;12.25;;;;;;;20.96;98.77;97509.13;4324033;80;28598;-83
2021/05/02 10:24:56;;;;;;;22.48;12.47;;;;;;;21.12;86.60;97522.13;4318537;81;28619;-81
2021/05/02 10:31:01;;;;;;;17.77;11.97;;;;;;;20.71;87.17;97536.31;4327617;82;28644;-81
2021/05/02 10:37:37;;;;;;;17.73;11.43;;;;;;;20.82;88.42;97547.66;4311319;82;28600;-81
2021/05/02 10:43:39;;;;;;;16.63;10.63;;;;;;;20.34;89.44;97549.80;4309854;80;28615;-81
2021/05/02 10:49:53;;;;;;;9.78;6.12;;;;;;;20.44;86.31;97568.52;4317084;80;28615;-81
2021/05/02 10:56:07;;;;;;;6.92;4.37;;;;;;;19.77;80.65;97575.05;4323185;82;28627;-81
2021/05/02 11:02:44;;;;;;;5.08;4.00;;;;;;;19.12;81.00;97588.18;4311187;82;28595;-81
2021/05/02 11:08:58;;;;;;;7.58;4.85;;;;;;;18.90;81.38;97610.91;4599427;76;77435;-81
2021/05/02 11:15:03;;;;;;;5.62;4.03;;;;;;;18.86;83.32;97627.66;4493991;78;28635;-81
2021/05/02 11:21:05;;;;;;;5.08;3.00;;;;;;;18.85;82.91;97655.98;4473940;78;28577;-82
2021/05/02 11:33:23;;;;;;;4.28;2.55;;;;;;;17.58;88.93;97701.08;4464359;78;28618;-82
2021/05/02 11:39:36;;;;;;;4.58;2.15;;;;;;;17.55;88.86;97700.34;4499956;77;28609;-82
2021/05/02 11:45:55;;;;;;;4.10;2.20;;;;;;;17.85;87.76;97716.98;4469455;78;28661;-82
2021/05/02 11:51:57;;;;;;;3.65;1.92;;;;;;;17.53;89.63;97740.05;4505127;78;28647;-82
2021/05/02 11:58:11;;;;;;;3.10;2.00;;;;;;;17.62;84.17;97742.84;4448657;79;28627;-82
2021/05/02 12:10:29;;;;;;;3.37;1.92;;;;;;;16.89;90.20;97791.15;4387888;79;72916;-83
2021/05/02 12:16:31;;;;;;;4.60;2.37;;;;;;;16.01;98.32;97804.45;4329007;80;28649;-82
2021/05/02 12:22:40;;;;;;;3.27;1.95;;;;;;;15.94;94.10;97830.33;4326812;80;28600;-80
2021/05/02 12:28:53;;;;;;;3.75;1.72;;;;;;;15.70;94.62;97845.56;4485022;79;85920;-81
2021/05/02 12:34:55;;;;;;;2.95;1.55;;;;;;;15.15;100.00;97866.36;4402294;80;28642;-82
2021/05/02 12:40:58;;;;;;;2.95;1.80;;;;;;;15.42;93.40;97869.81;4400502;80;28576;-82
2021/05/02 12:47:18;;;;;;;2.95;1.72;;;;;;;16.15;86.53;97911.58;4430706;80;28604;-82
2021/05/02 12:53:21;;;;;;;4.35;2.15;;;;;;;15.13;90.85;97923.52;4404861;80;28632;-82
2021/05/02 12:59:40;;;;;;;4.80;2.20;;;;;;;15.66;83.22;97939.38;4403200;80;28632;-81
2021/05/02 13:05:41;;;;;;;3.80;2.10;;;;;;;15.84;80.24;97966.22;4378235;80;28565;-81
2021/05/02 13:11:44;;;;;;;6.03;2.55;;;;;;;15.72;78.56;97973.98;4415519;80;28611;-82
2021/05/02 13:18:19;;;;;;;4.25;2.47;;;;;;;15.95;76.24;97979.66;4402356;80;28589;-80
2021/05/02 13:24:22;;;;;;;;;;;;;;;15.61;78.33;97986.30;4410395;80;28572;-81
2021/05/02 13:30:34;;;;;;;4.30;2.80;;;;;;;15.22;78.35;97996.77;4408768;80;20273;-81
2021/05/02 13:36:37;;;;;;;6.35;3.10;;;;;;;15.04;78.16;97996.97;4410791;80;28668;-84
2021/05/02 13:42:42;;;;;;;5.72;2.80;;;;;;;15.18;78.47;98018.19;4422310;80;28644;-81
2021/05/02 13:48:45;;;;;;;3.52;2.10;;;;;;;15.11;81.92;98038.05;4443399;80;28592;-82
2021/05/02 13:54:47;;;;;;;4.62;2.05;;;;;;;15.61;75.74;98048.62;4424234;80;28650;-81
2021/05/02 14:00:49;;;;;;;3.17;1.80;;;;;;;15.51;71.78;98066.88;4407573;80;28662;-85
2021/05/02 14:06:51;;;;;;;3.00;2.00;;;;;;;15.50;71.43;98080.16;4413213;80;28710;-86
2021/05/02 14:12:56;;;;;;;4.62;2.10;;;;;;;15.39;73.16;98092.45;4406819;80;28579;-81
2021/05/02 14:18:58;;;;;;;4.15;2.52;;;;;;;16.04;68.99;98103.97;4394937;80;28602;-82
2021/05/02 14:25:00;;;;;;;3.22;1.92;;;;;;;16.04;66.90;98117.53;4423033;80;28559;-84
2021/05/02 14:31:02;;;;;;;3.58;2.08;;;;;;;16.00;67.25;98140.91;4413167;80;28609;-83
2021/05/02 14:37:06;;;;;;;4.37;1.20;;;;;;;16.18;64.63;98150.17;4404015;79;28572;-83
2021/05/02 14:43:09;;;;;;;3.15;1.10;;;;;;;15.49;62.49;98182.30;4415508;80;28672;-83
2021/05/02 14:49:12;;;;;;;2.10;1.00;;;;;;;15.97;58.94;98192.43;4372599;79;28626;-82
2021/05/02 14:55:17;;;;;;;2.00;0.95;;;;;;;15.28;60.90;98217.67;4411454;79;28625;-81
2021/05/02 15:01:19;;;;;;;1.87;0.98;;;;;;;15.54;59.33;98233.71;4414305;79;28640;-82
2021/05/02 15:07:21;;;;;;;3.58;1.27;;;;;;;14.83;61.60;98221.75;4396456;80;28724;-83
2021/05/02 15:13:23;;;;;;;1.80;1.02;;;;;;;14.85;61.39;98241.22;4427222;79;28573;-84
2021/05/02 15:19:25;;;;;;;2.08;1.02;;;;;;;14.72;61.99;98233.69;4394318;79;28640;-82
2021/05/02 15:25:27;;;;;;;2.65;1.07;;;;;;;14.94;63.16;98227.11;4386854;80;28703;-83
2021/05/02 15:31:29;;;;;;;3.25;1.30;;;;;;;14.60;64.47;98246.17;4392293;80;28648;-82
2021/05/02 15:37:32;;;;;;;2.62;1.00;;;;;;;14.71;62.97;98255.07;4413739;80;28613;-83
2021/05/02 15:43:34;;;;;;;1.98;0.98;;;;;;;14.86;63.58;98246.89;4346104;80;28666;-82
2021/05/02 15:49:38;;;;;;;1.60;0.90;;;;;;;14.76;61.62;98260.47;4400910;80;28622;-81
2021/05/02 15:55:40;;;;;;;1.27;0.72;;;;;;;14.75;61.39;98246.69;4391357;80;28680;-82
2021/05/02 16:01:42;;;;;;;2.12;0.90;;;;;;;14.94;61.49;98265.79;4402935;80;28674;-81
2021/05/02 16:07:44;;;;;;;2.37;0.80;;;;;;;14.60;62.28;98263.76;4390299;80;28593;-81
2021/05/02 16:13:48;;;;;;;1.70;1.10;;;;;;;14.57;60.93;98284.61;4391373;80;28587;-82
2021/05/02 16:19:50;;;;;;;2.05;0.90;;;;;;;13.83;65.28;98318.26;4384502;80;28579;-81
2021/05/02 16:25:52;;;;;;;1.82;1.00;;;;;;;13.66;66.49;98331.48;4409775;80;28654;-84
2021/05/02 16:31:56;;;;;;;2.47;1.10;;;;;;;14.24;64.15;98325.52;4403116;80;28964;-81
2021/05/02 16:37:59;;;;;;;2.35;1.22;;;;;;;13.85;66.73;98339.06;4403198;80;28591;-81
2021/05/02 16:44:01;;;;;;;2.15;1.00;;;;;;;13.42;70.91;98343.28;4428239;80;28616;-82
2021/05/02 16:50:05;;;;;;;1.77;1.10;;;;;;;14.26;65.56;98345.53;4401342;80;28643;-82
2021/05/02 16:56:07;;;;;;;2.42;1.10;;;;;;;13.91;67.74;98346.09;4444009;80;28623;-81
2021/05/02 17:02:09;;;;;;;2.85;1.10;;;;;;;13.98;67.05;98349.05;4367094;81;28593;-82
2021/05/02 17:08:12;;;;;;;1.70;0.98;;;;;;;13.33;70.89;98360.56;4428652;80;28576;-80
2021/05/02 17:14:14;;;;;;;2.20;1.30;;;;;;;13.50;71.38;98357.66;4393993;80;28583;-83
2021/05/02 17:20:16;;;;;;;2.00;1.10;;;;;;;13.36;70.84;98368.67;4383734;80;28640;-82
2021/05/02 17:26:18;;;;;;;1.95;0.95;;;;;;;13.37;70.42;98380.53;4410855;80;28639;-81
2021/05/02 17:32:21;;;;;;;1.98;1.17;;;;;;;13.39;70.91;98401.35;4447147;80;28590;-82
2021/05/02 17:38:23;;;;;;;3.27;1.20;;;;;;;13.35;71.45;98399.45;4431035;80;28577;-83
2021/05/02 17:44:25;;;;;;;2.90;1.37;;;;;;;13.90;68.81;98443.11;4424400;80;28607;-82
2021/05/02 17:50:28;;;;;;;1.65;1.20;;;;;;;13.24;73.00;98448.00;4436426;80;28588;-84
2021/05/02 17:56:32;;;;;;;3.83;1.57;;;;;;;13.34;71.26;98449.13;4413505;80;28940;-82
2021/05/02 18:02:35;;;;;;;4.72;1.60;;;;;;;13.33;71.57;98465.02;4406104;80;28602;-82
2021/05/02 18:08:37;;;;;;;3.40;1.72;;;;;;;13.47;70.68;98479.71;4416716;80;28655;-82
2021/05/02 18:14:40;;;;;;;2.27;1.42;;;;;;;13.56;71.42;98471.91;4418414;80;28662;-82
2021/05/02 18:20:42;;;;;;;3.20;1.60;;;;;;;13.22;73.60;98489.30;4413090;80;28568;-82
2021/05/02 18:26:44;;;;;;;2.20;1.30;;;;;;;13.18;74.13;98497.63;4384986;80;28638;-82
2021/05/02 18:32:46;;;;;;;2.92;1.50;;;;;;;13.01;76.22;98529.36;4314675;81;28645;-83
2021/05/02 18:38:48;;;;;;;3.08;1.45;;;;;;;13.29;73.65;98539.00;4283161;82;28597;-82
2021/05/02 18:44:51;;;;;;;2.25;1.40;;;;;;;12.87;77.70;98542.50;4308717;81;28590;-82
2021/05/02 18:50:56;;;;;;;2.27;1.42;;;;;;;12.94;77.35;98565.48;4313859;81;28641;-82
2021/05/02 18:56:58;;;;;;;2.47;1.50;;;;;;;13.21;75.17;98568.63;4338694;82;28597;-83
2021/05/02 19:03:02;;;;;;;2.65;1.52;;;;;;;13.04;76.68;98569.34;4292469;81;28575;-83
2021/05/02 19:09:04;;;;;;;3.58;1.85;;;;;;;12.63;79.95;98600.30;4326713;82;28578;-86
2021/05/02 19:15:09;;;;;;;3.50;1.82;;;;;;;12.59;80.50;98602.41;4306445;81;28693;-84
2021/05/02 19:21:11;;;;;;;4.35;2.15;;;;;;;12.58;81.38;98604.83;4320322;81;28569;-81
2021/05/02 19:27:14;;;;;;;4.20;2.20;;;;;;;12.25;83.22;98619.05;4338930;80;28580;-85
2021/05/02 19:33:17;;;;;;;5.03;2.52;;;;;;;12.58;81.74;98620.45;4428407;80;28595;-84
2021/05/02 19:39:19;;;;;;;4.22;2.65;;;;;;;12.61;81.12;98619.97;4414768;79;28594;-84
2021/05/02 19:45:21;;;;;;;5.42;2.60;;;;;;;12.34;84.11;98639.63;4412884;79;28561;-84
2021/05/02 19:51:24;;;;;;;4.72;2.37;;;;;;;13.03;76.93;98648.67;4424959;80;28680;-84
2021/05/02 19:57:28;;;;;;;4.95;2.85;;;;;;;12.57;79.12;98650.39;4426691;79;28585;-84
2021/05/02 20:03:30;;;;;;;4.87;2.40;;;;;;;12.91;75.47;98652.34;4413970;79;28661;-82
2021/05/02 20:09:32;;;;;;;4.55;2.80;;;;;;;12.43;78.62;98666.14;4402961;80;28638;-82
2021/05/02 20:15:36;;;;;;;4.53;2.58;;;;;;;12.57;78.03;98657.94;4422094;79;28567;-82
2021/05/02 20:21:39;;;;;;;3.62;2.58;;;;;;;12.70;73.41;98666.16;4431020;79;28996;-83
2021/05/02 20:27:41;;;;;;;4.25;2.77;;;;;;;12.61;73.33;98682.52;4412351;80;28619;-82
2021/05/02 20:33:50;;;;;;;5.35;2.98;;;;;;;13.14;70.32;98688.69;4410156;80;28630;-81
2021/05/02 20:39:50;;;;;;;5.67;3.20;;;;;;;12.89;71.92;98688.74;4412657;80;28656;-81
2021/05/02 20:45:53;;;;;;;5.40;3.22;;;;;;;12.82;73.26;98695.70;4415185;80;28603;-82
2021/05/02 20:51:55;;;;;;;5.97;3.58;;;;;;;12.11;78.12;98684.64;4402436;80;28613;-82
2021/05/02 20:57:58;;;;;;;5.75;3.22;;;;;;;12.18;78.28;98678.23;4396891;80;28575;-82
2021/05/02 21:04:00;;;;;;;5.20;3.70;;;;;;;12.63;75.20;98678.50;4406801;80;28576;-82
2021/05/02 21:10:05;;;;;;;5.33;3.52;;;;;;;12.59;76.08;98662.53;4408470;80;28960;-82
2021/05/02 21:16:07;;;;;;;6.85;3.65;;;;;;;12.29;78.42;98677.84;4398956;80;28961;-82
2021/05/02 21:22:11;;;;;;;5.17;3.42;;;;;;;12.90;73.75;98682.27;4413465;80;28675;-82
2021/05/02 21:28:14;;;;;;;5.28;3.45;;;;;;;12.55;75.06;98707.27;4408250;80;28653;-82
2021/05/02 21:34:17;;;;;;;7.25;4.20;;;;;;;12.75;69.15;98712.05;4334649;82;28610;-82
2021/05/02 21:40:19;;;;;;;7.20;4.00;;;;;;;12.49;71.22;98710.44;4330707;82;28627;-82
2021/05/02 21:46:21;;;;;;;6.05;3.80;;;;;;;12.83;70.15;98715.66;4276826;82;28587;-83
2021/05/02 21:52:24;;;;;;;7.95;4.12;;;;;;;12.92;70.85;98713.86;4278899;82;28646;-82
2021/05/02 21:58:26;;;;;;;7.47;4.25;;;;;;;12.88;73.16;98714.09;4270520;82;28578;-81
2021/05/02 22:04:28;;;;;;;7.05;3.70;;;;;;;13.06;70.04;98727.76;4290137;82;28944;-82
2021/05/02 22:10:30;;;;;;;5.95;3.80;;;;;;;12.68;70.42;98735.19;4267906;82;28567;-82
2021/05/02 22:16:33;;;;;;;6.53;4.00;;;;;;;12.58;69.67;98741.80;4289347;82;28599;-82
2021/05/02 22:22:36;;;;;;;6.28;3.83;;;;;;;12.41;71.38;98756.70;4269964;82;28736;-81
2021/05/02 22:28:39;;;;;;;6.37;3.45;;;;;;;12.90;69.35;98766.71;4282347;82;28629;-82
2021/05/02 22:34:42;;;;;;;8.55;3.95;;;;;;;12.54;71.58;98770.35;4288201;83;28958;-82
2021/05/02 22:40:45;;;;;;;6.22;3.92;;;;;;;12.74;71.32;98767.08;4294330;83;28629;-82
2021/05/02 22:46:48;;;;;;;5.87;3.62;;;;;;;12.80;70.24;98784.13;4286356;83;28588;-82
2021/05/02 22:52:53;;;;;;;5.55;3.85;;;;;;;12.52;67.69;98794.06;4284175;83;28590;-83
2021/05/02 22:58:55;;;;;;;8.33;4.08;;;;;;;12.47;67.60;98788.07;4266093;82;28598;-83
2021/05/02 23:04:58;;;;;;;9.15;4.62;;;;;;;11.99;69.30;98792.48;4292575;83;28649;-82
2021/05/02 23:11:00;;;;;;;9.68;5.58;;;;;;;12.60;70.12;98778.80;4277328;83;28602;-82
2021/05/02 23:17:02;;;;;;;7.58;4.65;;;;;;;12.16;76.69;98781.44;4278824;83;28672;-82
2021/05/02 23:23:04;;;;;;;7.35;5.08;;;;;;;11.51;83.08;98781.23;4282081;83;28597;-81
2021/05/02 23:29:06;;;;;;;7.80;5.12;;;;;;;11.91;78.52;98793.44;4293095;82;28590;-81
2021/05/02 23:35:10;;;;;;;7.80;4.45;;;;;;;12.33;73.80;98804.30;4273473;83;28582;-82
2021/05/02 23:41:12;;;;;;;7.22;4.67;;;;;;;12.36;72.96;98797.89;4296053;83;28648;-82
2021/05/02 23:47:14;;;;;;;8.18;4.95;;;;;;;12.51;70.02;98804.02;4287908;83;28567;-83
2021/05/02 23:53:18;;;;;;;7.97;3.92;;;;;;;12.24;71.10;98810.66;4267199;83;28637;-83
2021/05/02 23:59:20;;;;;;;6.60;4.55;;;;;;;12.43;68.97;98807.69;4291741;81;28708;-83
